createdAt,value
2017-05-09T00:00:21.200Z,0
2017-05-09T00:01:01.814Z,0
2017-05-09T00:01:42.396Z,0
2017-05-09T00:02:22.981Z,0
2017-05-09T00:03:03.586Z,0
2017-05-09T00:03:44.183Z,0
2017-05-09T00:04:24.762Z,0
2017-05-09T00:05:05.356Z,0
2017-05-09T00:05:45.997Z,0
2017-05-09T00:06:26.613Z,0
2017-05-09T00:07:07.187Z,0
2017-05-09T00:07:47.784Z,0
2017-05-09T00:08:28.408Z,0
2017-05-09T00:09:08.993Z,0
2017-05-09T00:09:49.623Z,0
2017-05-09T00:10:30.258Z,0
2017-05-09T00:11:10.848Z,0
2017-05-09T00:11:51.492Z,0
2017-05-09T00:12:32.087Z,0
2017-05-09T00:13:12.691Z,0
2017-05-09T00:13:53.301Z,0
2017-05-09T00:14:33.895Z,0
2017-05-09T00:15:14.523Z,0
2017-05-09T00:15:55.127Z,0
2017-05-09T00:16:35.749Z,0
2017-05-09T00:17:16.393Z,0
2017-05-09T00:17:56.958Z,0
2017-05-09T00:18:37.583Z,0
2017-05-09T00:19:18.170Z,0
2017-05-09T00:19:58.812Z,0
2017-05-09T00:20:39.427Z,0
2017-05-09T00:21:20.030Z,0
2017-05-09T00:22:00.672Z,0
2017-05-09T00:22:41.283Z,0
2017-05-09T00:23:21.892Z,0
2017-05-09T00:24:02.531Z,0
2017-05-09T00:24:43.104Z,0
2017-05-09T00:25:23.704Z,0
2017-05-09T00:26:04.319Z,0
2017-05-09T00:26:44.922Z,0
2017-05-09T00:27:25.531Z,0
2017-05-09T00:28:06.143Z,0
2017-05-09T00:28:46.778Z,0
2017-05-09T00:29:27.364Z,0
2017-05-09T00:30:08.016Z,0
2017-05-09T00:30:48.638Z,0
2017-05-09T00:31:29.317Z,0
2017-05-09T00:32:09.883Z,0
2017-05-09T00:32:50.492Z,0
2017-05-09T00:33:31.110Z,0
2017-05-09T00:34:11.723Z,0
2017-05-09T00:34:52.317Z,0
2017-05-09T00:35:32.939Z,0
2017-05-09T00:36:13.520Z,0
2017-05-09T00:36:54.123Z,0
2017-05-09T00:37:34.767Z,0
2017-05-09T00:38:15.421Z,0
2017-05-09T00:38:56.010Z,0
2017-05-09T00:39:36.642Z,0
2017-05-09T00:40:17.243Z,0
2017-05-09T00:40:57.842Z,0
2017-05-09T00:41:38.497Z,0
2017-05-09T00:42:19.133Z,0
2017-05-09T00:42:59.778Z,0
2017-05-09T00:43:40.408Z,0
2017-05-09T00:44:21.010Z,0
2017-05-09T00:45:01.668Z,0
2017-05-09T00:45:42.349Z,0
2017-05-09T00:46:22.962Z,0
2017-05-09T00:47:06.376Z,0
2017-05-09T00:47:47.008Z,0
2017-05-09T00:48:27.622Z,0
2017-05-09T00:49:08.244Z,0
2017-05-09T00:49:48.816Z,0
2017-05-09T00:50:29.454Z,0
2017-05-09T00:51:10.103Z,0
2017-05-09T00:51:50.749Z,0
2017-05-09T00:52:31.364Z,0
2017-05-09T00:53:11.985Z,0
2017-05-09T00:53:52.607Z,0
2017-05-09T00:54:33.245Z,0
2017-05-09T00:55:13.904Z,0
2017-05-09T00:55:54.474Z,0
2017-05-09T00:56:35.083Z,0
2017-05-09T00:57:15.678Z,0
2017-05-09T00:57:56.269Z,0
2017-05-09T00:58:36.895Z,0
2017-05-09T00:59:17.540Z,0
2017-05-09T00:59:58.182Z,0
2017-05-09T01:00:38.840Z,0
2017-05-09T01:01:19.433Z,0
2017-05-09T01:02:00.036Z,0
2017-05-09T01:02:40.693Z,0
2017-05-09T01:03:21.427Z,0
2017-05-09T01:04:02.057Z,0
2017-05-09T01:04:42.683Z,0
2017-05-09T01:05:23.305Z,0
2017-05-09T01:06:03.908Z,0
2017-05-09T01:06:44.524Z,0
2017-05-09T01:07:25.167Z,0
2017-05-09T01:08:05.811Z,0
2017-05-09T01:08:46.376Z,0
2017-05-09T01:09:27.005Z,0
2017-05-09T01:10:07.578Z,0
2017-05-09T01:10:48.219Z,0
2017-05-09T01:11:28.855Z,0
2017-05-09T01:12:09.465Z,0
2017-05-09T01:12:50.078Z,0
2017-05-09T01:13:30.692Z,0
2017-05-09T01:14:11.303Z,0
2017-05-09T01:14:51.930Z,0
2017-05-09T01:15:32.512Z,0
2017-05-09T01:16:13.139Z,0
2017-05-09T01:16:53.735Z,0
2017-05-09T01:17:34.349Z,0
2017-05-09T01:18:14.964Z,0
2017-05-09T01:18:55.555Z,0
2017-05-09T01:19:36.136Z,0
2017-05-09T01:20:16.714Z,0
2017-05-09T01:20:57.307Z,0
2017-05-09T01:21:37.912Z,0
2017-05-09T01:22:18.507Z,0
2017-05-09T01:22:59.114Z,0
2017-05-09T01:23:39.710Z,0
2017-05-09T01:24:20.291Z,0
2017-05-09T01:25:00.881Z,0
2017-05-09T01:25:41.517Z,0
2017-05-09T01:26:22.129Z,0
2017-05-09T01:27:02.734Z,0
2017-05-09T01:27:43.327Z,0
2017-05-09T01:28:23.923Z,0
2017-05-09T01:29:04.522Z,0
2017-05-09T01:29:45.144Z,0
2017-05-09T01:30:25.734Z,0
2017-05-09T01:31:06.381Z,0
2017-05-09T01:31:47.041Z,0
2017-05-09T01:32:27.658Z,0
2017-05-09T01:33:08.261Z,0
2017-05-09T01:33:48.879Z,0
2017-05-09T01:34:29.562Z,0
2017-05-09T01:35:10.215Z,0
2017-05-09T01:35:50.836Z,0
2017-05-09T01:36:31.454Z,0
2017-05-09T01:37:12.042Z,0
2017-05-09T01:37:52.646Z,0
2017-05-09T01:38:33.266Z,0
2017-05-09T01:39:13.855Z,0
2017-05-09T01:39:54.473Z,0
2017-05-09T01:40:35.103Z,0
2017-05-09T01:41:15.721Z,0
2017-05-09T01:41:56.375Z,0
2017-05-09T01:42:37.012Z,0
2017-05-09T01:43:17.649Z,0
2017-05-09T01:43:58.285Z,0
2017-05-09T01:44:38.887Z,0
2017-05-09T01:45:19.513Z,0
2017-05-09T01:46:00.091Z,0
2017-05-09T01:46:40.707Z,0
2017-05-09T01:47:21.324Z,0
2017-05-09T01:48:01.957Z,0
2017-05-09T01:48:42.539Z,0
2017-05-09T01:49:23.136Z,0
2017-05-09T01:50:03.764Z,0
2017-05-09T01:50:44.371Z,0
2017-05-09T01:51:24.979Z,0
2017-05-09T01:52:05.676Z,0
2017-05-09T01:52:46.287Z,0
2017-05-09T01:53:26.907Z,0
2017-05-09T01:54:07.509Z,0
2017-05-09T01:54:48.099Z,0
2017-05-09T01:55:28.719Z,0
2017-05-09T01:56:09.391Z,0
2017-05-09T01:56:50.002Z,0
2017-05-09T01:57:30.589Z,0
2017-05-09T01:58:11.219Z,0
2017-05-09T01:58:51.850Z,0
2017-05-09T01:59:32.440Z,0
2017-05-09T02:00:13.048Z,0
2017-05-09T02:00:53.626Z,0
2017-05-09T02:01:34.221Z,0
2017-05-09T02:02:14.832Z,0
2017-05-09T02:02:55.444Z,0
2017-05-09T02:03:36.055Z,0
2017-05-09T02:04:16.676Z,0
2017-05-09T02:04:57.271Z,0
2017-05-09T02:05:37.885Z,0
2017-05-09T02:06:18.537Z,0
2017-05-09T02:06:59.153Z,0
2017-05-09T02:07:39.740Z,0
2017-05-09T02:08:20.332Z,0
2017-05-09T02:09:00.986Z,0
2017-05-09T02:09:41.623Z,0
2017-05-09T02:10:22.269Z,0
2017-05-09T02:11:02.916Z,0
2017-05-09T02:11:43.530Z,0
2017-05-09T02:12:24.131Z,0
2017-05-09T02:13:04.696Z,0
2017-05-09T02:13:45.348Z,0
2017-05-09T02:14:25.955Z,0
2017-05-09T02:15:06.562Z,0
2017-05-09T02:15:47.176Z,0
2017-05-09T02:16:27.767Z,0
2017-05-09T02:17:08.397Z,0
2017-05-09T02:17:48.981Z,0
2017-05-09T02:18:29.597Z,0
2017-05-09T02:19:10.200Z,0
2017-05-09T02:19:50.789Z,0
2017-05-09T02:20:31.386Z,0
2017-05-09T02:21:12.005Z,0
2017-05-09T02:21:52.627Z,0
2017-05-09T02:22:33.227Z,0
2017-05-09T02:23:13.857Z,0
2017-05-09T02:23:54.473Z,0
2017-05-09T02:24:35.097Z,0
2017-05-09T02:25:15.709Z,0
2017-05-09T02:25:56.331Z,0
2017-05-09T02:26:36.942Z,0
2017-05-09T02:27:17.588Z,0
2017-05-09T02:27:58.224Z,0
2017-05-09T02:28:38.819Z,0
2017-05-09T02:29:19.424Z,0
2017-05-09T02:30:00.051Z,0
2017-05-09T02:30:40.662Z,0
2017-05-09T02:31:21.269Z,0
2017-05-09T02:32:01.866Z,0
2017-05-09T02:32:42.479Z,0
2017-05-09T02:33:23.091Z,0
2017-05-09T02:34:03.709Z,0
2017-05-09T02:34:44.335Z,0
2017-05-09T02:35:24.944Z,0
2017-05-09T02:36:05.537Z,0
2017-05-09T02:36:46.147Z,0
2017-05-09T02:37:26.784Z,0
2017-05-09T02:38:07.447Z,0
2017-05-09T02:38:48.065Z,0
2017-05-09T02:39:28.662Z,0
2017-05-09T02:40:09.280Z,0
2017-05-09T02:40:49.868Z,0
2017-05-09T02:41:30.463Z,0
2017-05-09T02:42:11.058Z,0
2017-05-09T02:42:51.686Z,0
2017-05-09T02:43:32.287Z,0
2017-05-09T02:44:12.891Z,0
2017-05-09T02:44:53.510Z,0
2017-05-09T02:45:34.106Z,0
2017-05-09T02:46:14.731Z,0
2017-05-09T02:46:55.339Z,0
2017-05-09T02:47:35.922Z,0
2017-05-09T02:48:16.522Z,0
2017-05-09T02:48:57.113Z,0
2017-05-09T02:49:37.715Z,4
2017-05-09T02:50:18.359Z,4
2017-05-09T02:50:58.975Z,4
2017-05-09T02:51:39.581Z,4
2017-05-09T02:52:20.189Z,0
2017-05-09T02:53:00.815Z,0
2017-05-09T02:53:41.447Z,0
2017-05-09T02:54:22.056Z,0
2017-05-09T02:55:02.702Z,4
2017-05-09T02:55:43.296Z,4
2017-05-09T02:56:23.880Z,4
2017-05-09T02:57:04.494Z,4
2017-05-09T02:57:45.077Z,0
2017-05-09T02:58:25.696Z,4
2017-05-09T02:59:06.357Z,4
2017-05-09T02:59:46.940Z,4
2017-05-09T03:00:27.579Z,8
2017-05-09T03:01:08.225Z,4
2017-05-09T03:01:48.806Z,4
2017-05-09T03:02:29.411Z,8
2017-05-09T03:03:10.010Z,8
2017-05-09T03:03:50.641Z,4
2017-05-09T03:04:31.271Z,8
2017-05-09T03:05:11.861Z,8
2017-05-09T03:05:52.493Z,8
2017-05-09T03:06:33.083Z,8
2017-05-09T03:07:13.699Z,8
2017-05-09T03:07:54.323Z,12
2017-05-09T03:08:34.945Z,12
2017-05-09T03:09:15.588Z,16
2017-05-09T03:09:56.230Z,16
2017-05-09T03:10:36.810Z,16
2017-05-09T03:11:17.432Z,16
2017-05-09T03:11:58.083Z,16
2017-05-09T03:12:38.689Z,16
2017-05-09T03:13:19.290Z,16
2017-05-09T03:13:59.922Z,16
2017-05-09T03:14:40.511Z,20
2017-05-09T03:15:21.118Z,20
2017-05-09T03:16:01.738Z,20
2017-05-09T03:16:42.324Z,20
2017-05-09T03:17:22.914Z,20
2017-05-09T03:18:03.533Z,24
2017-05-09T03:18:44.127Z,24
2017-05-09T03:19:24.748Z,28
2017-05-09T03:20:05.364Z,28
2017-05-09T03:20:46.003Z,28
2017-05-09T03:21:26.650Z,32
2017-05-09T03:22:07.293Z,36
2017-05-09T03:22:47.860Z,40
2017-05-09T03:23:28.465Z,40
2017-05-09T03:24:09.062Z,44
2017-05-09T03:24:49.668Z,48
2017-05-09T03:25:30.262Z,48
2017-05-09T03:26:10.881Z,52
2017-05-09T03:26:51.523Z,56
2017-05-09T03:27:32.182Z,56
2017-05-09T03:28:12.821Z,60
2017-05-09T03:28:53.420Z,64
2017-05-09T03:29:34.053Z,64
2017-05-09T03:30:14.691Z,68
2017-05-09T03:30:55.288Z,72
2017-05-09T03:31:35.899Z,76
2017-05-09T03:32:16.509Z,80
2017-05-09T03:32:57.097Z,84
2017-05-09T03:33:37.699Z,92
2017-05-09T03:34:18.316Z,92
2017-05-09T03:34:58.939Z,100
2017-05-09T03:35:39.526Z,104
2017-05-09T03:36:20.146Z,112
2017-05-09T03:37:00.755Z,112
2017-05-09T03:37:41.348Z,120
2017-05-09T03:38:22.008Z,124
2017-05-09T03:39:02.635Z,128
2017-05-09T03:39:43.222Z,136
2017-05-09T03:40:23.831Z,140
2017-05-09T03:41:04.424Z,148
2017-05-09T03:41:45.028Z,156
2017-05-09T03:42:25.633Z,160
2017-05-09T03:43:06.267Z,168
2017-05-09T03:43:46.895Z,172
2017-05-09T03:44:27.510Z,180
2017-05-09T03:46:40.310Z,200
2017-05-09T03:47:20.891Z,204
2017-05-09T03:48:01.489Z,212
2017-05-09T03:48:42.062Z,216
2017-05-09T03:49:22.642Z,216
2017-05-09T03:50:03.271Z,216
2017-05-09T03:50:43.871Z,220
2017-05-09T03:51:24.460Z,220
2017-05-09T03:52:05.057Z,228
2017-05-09T03:52:45.630Z,232
2017-05-09T03:53:26.223Z,240
2017-05-09T03:54:06.806Z,248
2017-05-09T03:54:47.578Z,252
2017-05-09T03:55:28.383Z,256
2017-05-09T03:56:08.941Z,256
2017-05-09T03:56:49.533Z,256
2017-05-09T03:57:30.095Z,256
2017-05-09T03:58:10.694Z,252
2017-05-09T03:58:51.280Z,256
2017-05-09T03:59:31.897Z,260
2017-05-09T04:00:12.607Z,268
2017-05-09T04:00:53.207Z,276
2017-05-09T04:01:33.841Z,288
2017-05-09T04:02:14.450Z,296
2017-05-09T04:02:55.059Z,300
2017-05-09T04:03:35.655Z,304
2017-05-09T04:04:16.280Z,308
2017-05-09T04:04:56.890Z,312
2017-05-09T04:05:37.485Z,320
2017-05-09T04:06:18.097Z,328
2017-05-09T04:06:58.699Z,340
2017-05-09T04:07:39.315Z,352
2017-05-09T04:08:19.903Z,364
2017-05-09T04:09:00.512Z,380
2017-05-09T04:09:41.125Z,388
2017-05-09T04:10:21.741Z,400
2017-05-09T04:11:02.331Z,404
2017-05-09T04:11:42.944Z,408
2017-05-09T04:12:23.597Z,408
2017-05-09T04:13:04.162Z,404
2017-05-09T04:13:44.781Z,408
2017-05-09T04:14:25.475Z,412
2017-05-09T04:15:06.158Z,420
2017-05-09T04:15:46.748Z,424
2017-05-09T04:16:27.368Z,432
2017-05-09T04:17:07.981Z,440
2017-05-09T04:17:48.790Z,452
2017-05-09T04:18:29.493Z,460
2017-05-09T04:19:10.133Z,472
2017-05-09T04:19:50.718Z,480
2017-05-09T04:20:31.351Z,496
2017-05-09T04:21:11.941Z,504
2017-05-09T04:21:52.550Z,516
2017-05-09T04:22:33.182Z,528
2017-05-09T04:23:13.788Z,540
2017-05-09T04:23:54.410Z,560
2017-05-09T04:24:35.025Z,572
2017-05-09T04:25:15.670Z,588
2017-05-09T04:25:56.251Z,608
2017-05-09T04:26:36.861Z,632
2017-05-09T04:27:17.498Z,660
2017-05-09T04:27:58.042Z,688
2017-05-09T04:28:38.608Z,716
2017-05-09T04:29:19.205Z,756
2017-05-09T04:29:59.802Z,796
2017-05-09T04:30:40.386Z,852
2017-05-09T04:31:20.933Z,896
2017-05-09T04:32:01.533Z,932
2017-05-09T04:32:42.124Z,952
2017-05-09T04:33:22.719Z,968
2017-05-09T04:34:03.300Z,980
2017-05-09T04:34:43.893Z,992
2017-05-09T04:35:24.468Z,1012
2017-05-09T04:36:05.052Z,1036
2017-05-09T04:36:45.628Z,1080
2017-05-09T04:37:26.258Z,1120
2017-05-09T04:38:06.864Z,1152
2017-05-09T04:38:47.496Z,1172
2017-05-09T04:39:28.033Z,1164
2017-05-09T04:40:08.635Z,1144
2017-05-09T04:40:49.265Z,1112
2017-05-09T04:41:29.893Z,1076
2017-05-09T04:42:10.476Z,1044
2017-05-09T04:42:51.139Z,1024
2017-05-09T04:43:31.737Z,1020
2017-05-09T04:44:12.362Z,1036
2017-05-09T04:44:52.976Z,1072
2017-05-09T04:45:33.565Z,1104
2017-05-09T04:46:14.168Z,1120
2017-05-09T04:46:54.783Z,1112
2017-05-09T04:47:35.390Z,1088
2017-05-09T04:48:16.057Z,1052
2017-05-09T04:48:56.689Z,1012
2017-05-09T04:49:37.267Z,972
2017-05-09T04:50:17.926Z,944
2017-05-09T04:50:58.531Z,936
2017-05-09T04:51:39.139Z,944
2017-05-09T04:52:19.754Z,976
2017-05-09T04:53:00.370Z,1012
2017-05-09T04:53:41.024Z,1036
2017-05-09T04:54:21.633Z,1044
2017-05-09T04:55:02.243Z,1032
2017-05-09T04:55:42.819Z,1004
2017-05-09T04:56:23.452Z,984
2017-05-09T04:57:04.079Z,964
2017-05-09T04:57:44.680Z,948
2017-05-09T04:58:25.320Z,944
2017-05-09T04:59:05.980Z,956
2017-05-09T04:59:46.613Z,964
2017-05-09T05:00:27.232Z,980
2017-05-09T05:01:07.805Z,996
2017-05-09T05:01:48.413Z,1008
2017-05-09T05:02:29.016Z,1016
2017-05-09T05:03:09.675Z,1016
2017-05-09T05:03:50.324Z,1016
2017-05-09T05:04:30.917Z,1004
2017-05-09T05:05:11.568Z,992
2017-05-09T05:05:52.164Z,980
2017-05-09T05:06:32.756Z,968
2017-05-09T05:07:13.346Z,956
2017-05-09T05:07:53.909Z,956
2017-05-09T05:08:34.507Z,968
2017-05-09T05:09:15.124Z,992
2017-05-09T05:09:55.718Z,1020
2017-05-09T05:10:36.316Z,1060
2017-05-09T05:11:16.920Z,1104
2017-05-09T05:11:57.488Z,1148
2017-05-09T05:12:38.081Z,1192
2017-05-09T05:13:18.682Z,1252
2017-05-09T05:13:59.251Z,1316
2017-05-09T05:14:39.914Z,1384
2017-05-09T05:15:20.520Z,1456
2017-05-09T05:16:01.130Z,1536
2017-05-09T05:16:41.702Z,1612
2017-05-09T05:17:22.294Z,1668
2017-05-09T05:18:02.866Z,1708
2017-05-09T05:18:43.493Z,1736
2017-05-09T05:19:24.093Z,1764
2017-05-09T05:20:04.678Z,1800
2017-05-09T05:20:45.280Z,1836
2017-05-09T05:21:25.919Z,1872
2017-05-09T05:22:06.581Z,1892
2017-05-09T05:22:48.751Z,1900
2017-05-09T05:23:29.346Z,1900
2017-05-09T05:24:09.952Z,1876
2017-05-09T05:24:50.608Z,1840
2017-05-09T05:25:31.227Z,1820
2017-05-09T05:26:11.843Z,1820
2017-05-09T05:26:52.435Z,1836
2017-05-09T05:27:33.005Z,1892
2017-05-09T05:28:13.659Z,1992
2017-05-09T05:28:54.326Z,2148
2017-05-09T05:29:34.949Z,2344
2017-05-09T05:30:15.537Z,2532
2017-05-09T05:30:56.154Z,2684
2017-05-09T05:31:36.751Z,2780
2017-05-09T05:32:17.380Z,2808
2017-05-09T05:32:57.978Z,2784
2017-05-09T05:33:38.593Z,2728
2017-05-09T05:34:19.196Z,2672
2017-05-09T05:34:59.806Z,2624
2017-05-09T05:35:40.410Z,2584
2017-05-09T05:36:21.031Z,2568
2017-05-09T05:37:01.653Z,2552
2017-05-09T05:37:42.278Z,2528
2017-05-09T05:38:22.871Z,2532
2017-05-09T05:39:03.460Z,2560
2017-05-09T05:39:44.050Z,2592
2017-05-09T05:40:24.647Z,2632
2017-05-09T05:41:05.278Z,2676
2017-05-09T05:41:45.871Z,2712
2017-05-09T05:42:26.488Z,2744
2017-05-09T05:43:07.123Z,2760
2017-05-09T05:43:47.775Z,2756
2017-05-09T05:44:28.414Z,2720
2017-05-09T05:45:09.023Z,2668
2017-05-09T05:45:49.632Z,2624
2017-05-09T05:46:30.237Z,2560
2017-05-09T05:47:10.825Z,2504
2017-05-09T05:47:51.449Z,2468
2017-05-09T05:48:32.133Z,2460
2017-05-09T05:49:12.704Z,2496
2017-05-09T05:49:53.299Z,2520
2017-05-09T05:50:33.962Z,2540
2017-05-09T05:51:14.585Z,2532
2017-05-09T05:51:55.201Z,2508
2017-05-09T05:52:35.844Z,2488
2017-05-09T05:53:16.454Z,2460
2017-05-09T05:53:57.086Z,2428
2017-05-09T05:54:37.696Z,2428
2017-05-09T05:55:18.329Z,2460
2017-05-09T05:55:58.953Z,2516
2017-05-09T05:56:39.606Z,2576
2017-05-09T05:57:20.224Z,2620
2017-05-09T05:58:00.828Z,2672
2017-05-09T05:58:41.466Z,2716
2017-05-09T05:59:22.082Z,2732
2017-05-09T06:00:02.689Z,2708
2017-05-09T06:00:43.300Z,2632
2017-05-09T06:01:23.972Z,2548
2017-05-09T06:02:04.566Z,2476
2017-05-09T06:02:45.187Z,2428
2017-05-09T06:03:25.857Z,2412
2017-05-09T06:04:06.480Z,2404
2017-05-09T06:04:47.091Z,2424
2017-05-09T06:05:27.700Z,2460
2017-05-09T06:06:08.294Z,2496
2017-05-09T06:06:48.903Z,2552
2017-05-09T06:07:29.526Z,2608
2017-05-09T06:08:10.200Z,2648
2017-05-09T06:08:50.849Z,2648
2017-05-09T06:09:31.497Z,2628
2017-05-09T06:10:12.063Z,2572
2017-05-09T06:10:52.679Z,2488
2017-05-09T06:11:33.333Z,2412
2017-05-09T06:12:13.928Z,2332
2017-05-09T06:12:54.551Z,2284
2017-05-09T06:13:35.183Z,2256
2017-05-09T06:14:15.814Z,2228
2017-05-09T06:14:56.388Z,2248
2017-05-09T06:15:36.957Z,2316
2017-05-09T06:16:17.595Z,2440
2017-05-09T06:16:58.178Z,2568
2017-05-09T06:17:38.814Z,2668
2017-05-09T06:18:19.384Z,2724
2017-05-09T06:18:59.963Z,2760
2017-05-09T06:19:40.576Z,2836
2017-05-09T06:20:21.210Z,2952
2017-05-09T06:21:01.802Z,3084
2017-05-09T06:21:42.471Z,3216
2017-05-09T06:22:23.076Z,3380
2017-05-09T06:23:03.747Z,3548
2017-05-09T06:23:44.372Z,3716
2017-05-09T06:24:24.969Z,3868
2017-05-09T06:25:05.575Z,4012
2017-05-09T06:25:46.216Z,4148
2017-05-09T06:26:26.828Z,4264
2017-05-09T06:27:07.441Z,4440
2017-05-09T06:27:48.051Z,4672
2017-05-09T06:28:28.697Z,4872
2017-05-09T06:29:09.330Z,4984
2017-05-09T06:29:50.070Z,5024
2017-05-09T06:30:30.837Z,5040
2017-05-09T06:31:11.473Z,5028
2017-05-09T06:31:52.051Z,5040
2017-05-09T06:32:32.653Z,5036
2017-05-09T06:33:13.262Z,5052
2017-05-09T06:33:53.891Z,5204
2017-05-09T06:34:34.529Z,5212
2017-05-09T06:35:15.118Z,5384
2017-05-09T06:35:55.749Z,5608
2017-05-09T06:36:36.402Z,5916
2017-05-09T06:37:17.001Z,6320
2017-05-09T06:37:57.651Z,6804
2017-05-09T06:38:38.266Z,7284
2017-05-09T06:39:18.845Z,7692
2017-05-09T06:39:59.531Z,8088
2017-05-09T06:40:40.111Z,8636
2017-05-09T06:41:20.712Z,9260
2017-05-09T06:42:01.290Z,9668
2017-05-09T06:42:41.885Z,9568
2017-05-09T06:43:22.504Z,9360
2017-05-09T06:44:03.101Z,8956
2017-05-09T06:44:43.781Z,8760
2017-05-09T06:45:24.384Z,8624
2017-05-09T06:46:05.011Z,8040
2017-05-09T06:46:45.633Z,7372
2017-05-09T06:47:26.280Z,6912
2017-05-09T06:48:06.895Z,6764
2017-05-09T06:48:47.754Z,6844
2017-05-09T06:49:28.411Z,7008
2017-05-09T06:50:09.298Z,7288
2017-05-09T06:50:49.958Z,7696
2017-05-09T06:51:30.830Z,8224
2017-05-09T06:52:12.224Z,8564
2017-05-09T06:52:52.824Z,8860
2017-05-09T06:53:33.515Z,9240
2017-05-09T06:54:14.064Z,10048
2017-05-09T06:54:54.662Z,10436
2017-05-09T06:55:35.338Z,10780
2017-05-09T06:56:16.270Z,11464
2017-05-09T06:56:57.329Z,12396
2017-05-09T06:57:37.906Z,12912
2017-05-09T06:58:18.515Z,13540
2017-05-09T06:58:59.093Z,14316
2017-05-09T06:59:39.725Z,18976
2017-05-09T07:00:20.463Z,14828
2017-05-09T07:01:01.025Z,14812
2017-05-09T07:01:42.037Z,23488
2017-05-09T07:02:22.398Z,15312
2017-05-09T07:03:02.998Z,16208
2017-05-09T07:03:43.596Z,17696
2017-05-09T07:04:24.203Z,16608
2017-05-09T07:05:04.774Z,15564
2017-05-09T07:05:45.376Z,15276
2017-05-09T07:06:25.964Z,16832
2017-05-09T07:07:06.554Z,19456
2017-05-09T07:07:47.149Z,21088
2017-05-09T07:08:27.780Z,18592
2017-05-09T07:09:08.479Z,18016
2017-05-09T07:09:49.139Z,17792
2017-05-09T07:10:29.743Z,13688
2017-05-09T07:11:10.399Z,11512
2017-05-09T07:11:51.134Z,10880
2017-05-09T07:12:31.754Z,10652
2017-05-09T07:13:12.342Z,8364
2017-05-09T07:13:52.947Z,6972
2017-05-09T07:14:33.549Z,6132
2017-05-09T07:15:14.161Z,5624
2017-05-09T07:15:54.793Z,5136
2017-05-09T07:16:35.423Z,4640
2017-05-09T07:17:16.025Z,4196
2017-05-09T07:17:56.691Z,4048
2017-05-09T07:18:37.434Z,4004
2017-05-09T07:19:18.010Z,4060
2017-05-09T07:19:58.709Z,4164
2017-05-09T07:20:39.356Z,4332
2017-05-09T07:21:19.949Z,4648
2017-05-09T07:22:00.560Z,5072
2017-05-09T07:22:41.220Z,5404
2017-05-09T07:23:21.874Z,5568
2017-05-09T07:24:02.508Z,5392
2017-05-09T07:24:43.121Z,5264
2017-05-09T07:25:23.883Z,5408
2017-05-09T07:26:04.537Z,5672
2017-05-09T07:26:45.176Z,6136
2017-05-09T07:27:25.765Z,7304
2017-05-09T07:28:06.411Z,7936
2017-05-09T07:28:47.046Z,7876
2017-05-09T07:29:27.637Z,8360
2017-05-09T07:30:08.250Z,9232
2017-05-09T07:30:48.884Z,10872
2017-05-09T07:31:29.560Z,15016
2017-05-09T07:32:10.157Z,30848
2017-05-09T07:32:51.025Z,27232
2017-05-09T07:33:32.190Z,38432
2017-05-09T07:34:13.378Z,41120
2017-05-09T07:34:54.474Z,53824
2017-05-09T07:35:35.379Z,74720
2017-05-09T07:36:16.747Z,67168
2017-05-09T07:36:57.566Z,78240
2017-05-09T07:37:38.341Z,65760
2017-05-09T07:38:18.942Z,89568
2017-05-09T07:38:59.541Z,67936
2017-05-09T07:39:40.172Z,67616
2017-05-09T07:40:20.750Z,55936
2017-05-09T07:41:01.831Z,38688
2017-05-09T07:41:42.873Z,39808
2017-05-09T07:42:23.473Z,35232
2017-05-09T07:43:04.081Z,31488
2017-05-09T07:43:44.668Z,33152
2017-05-09T07:44:25.267Z,31168
2017-05-09T07:45:05.884Z,35232
2017-05-09T07:45:46.469Z,24832
2017-05-09T07:46:27.046Z,26176
2017-05-09T07:47:07.619Z,23424
2017-05-09T07:47:48.211Z,20000
2017-05-09T07:48:28.787Z,21856
2017-05-09T07:49:09.436Z,28512
2017-05-09T07:49:50.016Z,34976
2017-05-09T07:50:30.632Z,32288
2017-05-09T07:51:11.220Z,33568
2017-05-09T07:51:51.813Z,47488
2017-05-09T07:52:32.461Z,41696
2017-05-09T07:53:13.070Z,39264
2017-05-09T07:53:53.671Z,36928
2017-05-09T07:54:34.242Z,46208
2017-05-09T07:55:14.815Z,32544
2017-05-09T07:55:55.475Z,32096
2017-05-09T07:56:36.075Z,42176
2017-05-09T07:57:16.670Z,50272
2017-05-09T07:57:57.295Z,23680
2017-05-09T07:58:37.955Z,27616
2017-05-09T07:59:18.554Z,29280
2017-05-09T07:59:59.161Z,22592
2017-05-09T08:00:39.795Z,22912
2017-05-09T08:01:20.376Z,22048
2017-05-09T08:02:00.981Z,22144
2017-05-09T08:02:41.571Z,20384
2017-05-09T08:03:22.166Z,15656
2017-05-09T08:04:02.757Z,14560
2017-05-09T08:04:43.338Z,14076
2017-05-09T08:05:24.043Z,14176
2017-05-09T08:06:04.644Z,17440
2017-05-09T08:06:45.262Z,19232
2017-05-09T08:07:25.851Z,16320
2017-05-09T08:08:06.460Z,15668
2017-05-09T08:08:47.072Z,16224
2017-05-09T08:09:27.705Z,14964
2017-05-09T08:10:08.296Z,13136
2017-05-09T08:10:48.900Z,12284
2017-05-09T08:11:29.522Z,10180
2017-05-09T08:12:10.113Z,9024
2017-05-09T08:12:50.743Z,9048
2017-05-09T08:13:31.348Z,9620
2017-05-09T08:14:11.980Z,9840
2017-05-09T08:14:52.565Z,9484
2017-05-09T08:15:33.183Z,8548
2017-05-09T08:16:13.823Z,7660
2017-05-09T08:16:54.439Z,6736
2017-05-09T08:17:35.055Z,6056
2017-05-09T08:18:15.667Z,5592
2017-05-09T08:18:56.265Z,5592
2017-05-09T08:19:36.888Z,5968
2017-05-09T08:20:17.510Z,6676
2017-05-09T08:20:58.094Z,7144
2017-05-09T08:21:38.701Z,7172
2017-05-09T08:22:19.297Z,7228
2017-05-09T08:22:59.889Z,7352
2017-05-09T08:23:40.523Z,7700
2017-05-09T08:24:21.180Z,8292
2017-05-09T08:25:01.806Z,9288
2017-05-09T08:25:42.466Z,10472
2017-05-09T08:26:23.056Z,12332
2017-05-09T08:27:03.691Z,12560
2017-05-09T08:27:44.318Z,12128
2017-05-09T08:28:25.005Z,14684
2017-05-09T08:29:05.628Z,13416
2017-05-09T08:29:46.248Z,13820
2017-05-09T08:30:26.902Z,12476
2017-05-09T08:31:07.534Z,11680
2017-05-09T08:31:48.139Z,11064
2017-05-09T08:32:28.714Z,10808
2017-05-09T08:33:09.326Z,10968
2017-05-09T08:33:49.967Z,11668
2017-05-09T08:34:30.601Z,12336
2017-05-09T08:35:11.227Z,12236
2017-05-09T08:35:51.817Z,12256
2017-05-09T08:36:32.431Z,11684
2017-05-09T08:37:13.023Z,11584
2017-05-09T08:37:53.605Z,12148
2017-05-09T08:38:34.222Z,13696
2017-05-09T08:39:14.885Z,14104
2017-05-09T08:39:55.540Z,13440
2017-05-09T08:40:36.157Z,12400
2017-05-09T08:41:16.771Z,12884
2017-05-09T08:41:57.396Z,13076
2017-05-09T08:42:38.003Z,12452
2017-05-09T08:43:18.589Z,13140
2017-05-09T08:43:59.173Z,12312
2017-05-09T08:44:39.763Z,12676
2017-05-09T08:45:20.379Z,10400
2017-05-09T08:46:00.975Z,9708
2017-05-09T08:46:41.583Z,9212
2017-05-09T08:47:22.158Z,8976
2017-05-09T08:48:02.753Z,9260
2017-05-09T08:48:43.369Z,9828
2017-05-09T08:49:24.004Z,9968
2017-05-09T08:50:04.600Z,10604
2017-05-09T08:50:45.218Z,9452
2017-05-09T08:51:25.840Z,8488
2017-05-09T08:52:06.472Z,7412
2017-05-09T08:52:47.109Z,6152
2017-05-09T08:53:27.738Z,5472
2017-05-09T08:54:08.326Z,4820
2017-05-09T08:54:48.925Z,4384
2017-05-09T08:55:29.581Z,5392
2017-05-09T08:56:10.197Z,7336
2017-05-09T08:56:50.797Z,6188
2017-05-09T08:57:31.394Z,8536
2017-05-09T08:58:12.029Z,7904
2017-05-09T08:58:52.638Z,8248
2017-05-09T08:59:33.309Z,6464
2017-05-09T09:00:13.913Z,6516
2017-05-09T09:00:54.551Z,6108
2017-05-09T09:01:35.159Z,6116
2017-05-09T09:02:15.768Z,8004
2017-05-09T09:02:56.366Z,7836
2017-05-09T09:03:36.976Z,7464
2017-05-09T09:04:17.570Z,7692
2017-05-09T09:04:58.175Z,8072
2017-05-09T09:05:38.791Z,8056
2017-05-09T09:06:19.399Z,8292
2017-05-09T09:07:00.011Z,8320
2017-05-09T09:07:40.657Z,7544
2017-05-09T09:08:21.283Z,7156
2017-05-09T09:09:01.892Z,6716
2017-05-09T09:09:42.514Z,7172
2017-05-09T09:10:23.133Z,7652
2017-05-09T09:11:03.737Z,7780
2017-05-09T09:11:44.340Z,7724
2017-05-09T09:12:24.967Z,8076
2017-05-09T09:13:05.544Z,6612
2017-05-09T09:13:46.183Z,6972
2017-05-09T09:14:26.829Z,7424
2017-05-09T09:15:07.424Z,7512
2017-05-09T09:15:48.013Z,6844
2017-05-09T09:16:28.613Z,5416
2017-05-09T09:17:09.242Z,4840
2017-05-09T09:17:49.838Z,4520
2017-05-09T09:18:30.430Z,4176
2017-05-09T09:19:11.035Z,3772
2017-05-09T09:19:51.703Z,3356
2017-05-09T09:20:32.314Z,2900
2017-05-09T09:21:12.893Z,2504
2017-05-09T09:21:53.479Z,2236
2017-05-09T09:22:34.096Z,1988